KGMJ

Grove Municipal Airport

Grove, Oklahoma, USA
METAR KGMJ 252215Z AUTO 26006KT 10SM CLR 30/18 A2986 RMK AO2 LTG DSNT E AND SE
Observed Flight Rules
May-25 @ 22:15 UTC (7 minutes ago) Visual Flight Rules
Wind Visibility Clouds
260° at 6 knots 10 miles
  • Clear skies
Temperatures Readings
Current 30°C / 86°F
Dewpoint 18°C / 64°F
Humidity 49%
Altimeter 29.86" Hg
Pressure 1011 hPa
Elevation 254
METAR KGMJ 252215Z AUTO 26006KT 10SM CLR 30/18 A2986 RMK AO2 LTG DSNT E AND SE
Observed Flight Rules
May-25 @ 22:15 UTC
(7 minutes ago)
VFR
Wind Visibility
260° at 6 knots 10 miles
Clouds
  • Clear skies
Temperature Dewpoint
30°C / 86°F 18°C / 64°F
Humidity Altimeter Pressure
49% 29.86" Hg 1011 hPa